createdAt,value
2019-01-12T00:01:01.647Z,96.80
2019-01-12T00:03:29.912Z,96.70
2019-01-12T00:05:58.185Z,96.50
2019-01-12T00:08:26.411Z,96.60
2019-01-12T00:10:54.626Z,96.70
2019-01-12T00:13:22.882Z,96.60
2019-01-12T00:15:51.103Z,96.60
2019-01-12T00:18:19.370Z,96.60
2019-01-12T00:20:47.588Z,96.60
2019-01-12T00:23:15.811Z,96.70
2019-01-12T00:25:44.067Z,96.60
2019-01-12T00:28:12.296Z,96.50
2019-01-12T00:30:40.544Z,96.60
2019-01-12T00:33:08.782Z,96.60
2019-01-12T00:35:37.096Z,96.30
2019-01-12T00:38:05.348Z,96.20
2019-01-12T00:40:33.564Z,96.10
2019-01-12T00:43:01.794Z,95.90
2019-01-12T00:45:30.033Z,96.00
2019-01-12T00:47:58.270Z,95.90
2019-01-12T00:50:26.762Z,96.00
2019-01-12T00:52:55.015Z,96.20
2019-01-12T00:55:23.236Z,96.20
2019-01-12T00:57:51.464Z,96.40
2019-01-12T01:00:20.448Z,96.80
2019-01-12T01:02:49.244Z,96.40
2019-01-12T01:05:17.466Z,96.40
2019-01-12T01:07:45.716Z,96.20
2019-01-12T01:10:16.671Z,96.40
2019-01-12T01:12:44.904Z,96.30
2019-01-12T01:15:13.448Z,96.30
2019-01-12T01:17:41.697Z,96.30
2019-01-12T01:20:12.256Z,96.40
2019-01-12T01:22:40.520Z,96.20
2019-01-12T01:25:09.491Z,96.30
2019-01-12T01:27:37.716Z,96.40
2019-01-12T01:30:09.400Z,96.40
2019-01-12T01:32:37.628Z,96.50
2019-01-12T01:35:06.305Z,96.70
2019-01-12T01:37:35.446Z,96.60
2019-01-12T01:40:05.308Z,96.80
2019-01-12T01:42:33.543Z,96.60
2019-01-12T01:45:01.797Z,96.70
2019-01-12T01:47:30.024Z,96.40
2019-01-12T01:49:58.258Z,96.30
2019-01-12T01:52:26.512Z,96.20
2019-01-12T01:54:54.731Z,96.20
2019-01-12T01:57:22.952Z,96.40
2019-01-12T01:59:51.226Z,96.30
2019-01-12T02:02:19.709Z,96.40
2019-01-12T02:04:47.940Z,96.10
2019-01-12T02:07:16.198Z,96.10
2019-01-12T02:09:44.419Z,96.00
2019-01-12T02:12:12.651Z,96.20
2019-01-12T02:14:40.905Z,95.90
2019-01-12T02:17:09.129Z,95.90
2019-01-12T02:19:37.347Z,96.10
2019-01-12T02:22:05.614Z,96.10
2019-01-12T02:24:33.832Z,96.20
2019-01-12T02:27:02.058Z,96.20
2019-01-12T02:29:30.308Z,96.20
2019-01-12T02:31:58.550Z,96.50
2019-01-12T02:34:26.740Z,96.60
2019-01-12T02:36:54.953Z,96.20
2019-01-12T02:39:23.155Z,96.40
2019-01-12T02:41:51.360Z,96.60
2019-01-12T02:44:19.594Z,96.70
2019-01-12T02:46:47.798Z,96.70
2019-01-12T02:49:16.008Z,97.00
2019-01-12T02:51:44.226Z,97.00
2019-01-12T02:54:12.442Z,97.10
2019-01-12T02:56:40.640Z,97.10
2019-01-12T02:59:08.848Z,97.10
2019-01-12T03:01:37.042Z,97.00
2019-01-12T03:04:05.245Z,96.90
2019-01-12T03:06:33.482Z,97.00
2019-01-12T03:09:01.703Z,96.80
2019-01-12T03:11:29.903Z,96.70
2019-01-12T03:13:58.122Z,96.80
2019-01-12T03:16:26.311Z,96.90
2019-01-12T03:18:54.519Z,96.70
2019-01-12T03:21:22.733Z,96.70
2019-01-12T03:23:50.939Z,96.80
2019-01-12T03:26:19.140Z,96.80
2019-01-12T03:28:47.375Z,96.70
2019-01-12T03:31:15.572Z,96.70
2019-01-12T03:33:43.795Z,96.80
2019-01-12T03:36:11.992Z,96.80
2019-01-12T03:38:40.207Z,96.90
2019-01-12T03:41:09.251Z,96.80
2019-01-12T03:43:37.454Z,96.90
2019-01-12T03:46:05.676Z,96.80
2019-01-12T03:48:33.888Z,96.50
2019-01-12T03:51:02.100Z,96.50
2019-01-12T03:53:30.329Z,96.60
2019-01-12T03:55:58.514Z,96.60
2019-01-12T03:58:26.751Z,96.70
2019-01-12T04:00:55.171Z,96.80
2019-01-12T04:03:23.376Z,96.80
2019-01-12T04:05:51.612Z,96.60
2019-01-12T04:08:19.809Z,97.00
2019-01-12T04:10:48.031Z,96.60
2019-01-12T04:13:16.224Z,96.60
2019-01-12T04:15:44.423Z,96.60
2019-01-12T04:18:12.649Z,96.60
2019-01-12T04:20:40.835Z,96.70
2019-01-12T04:23:09.074Z,96.80
2019-01-12T04:25:37.278Z,96.50
2019-01-12T04:28:05.482Z,96.50
2019-01-12T04:30:33.711Z,96.30
2019-01-12T04:33:01.899Z,96.40
2019-01-12T04:35:30.180Z,96.20
2019-01-12T04:37:58.419Z,96.20
2019-01-12T04:40:26.622Z,96.40
2019-01-12T04:42:54.851Z,96.20
2019-01-12T04:45:23.066Z,96.50
2019-01-12T04:47:51.298Z,96.70
2019-01-12T04:50:19.504Z,97.00
2019-01-12T04:52:47.690Z,97.00
2019-01-12T04:55:15.911Z,97.10
2019-01-12T04:57:44.114Z,97.10
2019-01-12T05:00:14.474Z,97.30
2019-01-12T05:02:42.670Z,97.00
2019-01-12T05:05:10.880Z,97.00
2019-01-12T05:07:39.099Z,96.80
2019-01-12T05:10:09.635Z,96.90
2019-01-12T05:12:37.881Z,96.60
2019-01-12T05:15:08.715Z,96.50
2019-01-12T05:17:36.909Z,96.50
2019-01-12T05:20:08.395Z,96.20
2019-01-12T05:22:36.595Z,96.10
2019-01-12T05:25:05.593Z,96.10
2019-01-12T05:27:33.784Z,96.10
2019-01-12T05:30:01.983Z,96.20
2019-01-12T05:32:30.195Z,96.40
2019-01-12T05:34:58.398Z,96.40
2019-01-12T05:37:26.618Z,96.40
2019-01-12T05:39:54.819Z,96.30
2019-01-12T05:42:23.033Z,96.60
2019-01-12T05:44:51.246Z,96.70
2019-01-12T05:47:19.478Z,96.60
2019-01-12T05:49:47.695Z,96.40
2019-01-12T05:52:15.899Z,96.40
2019-01-12T05:54:44.094Z,96.40
2019-01-12T05:57:12.315Z,96.30
2019-01-12T05:59:40.514Z,96.40
2019-01-12T06:02:08.726Z,96.70
2019-01-12T06:04:36.932Z,96.50
2019-01-12T06:07:05.202Z,96.60
2019-01-12T06:09:33.419Z,96.50
2019-01-12T06:12:01.625Z,96.70
2019-01-12T06:14:29.859Z,96.70
2019-01-12T06:16:58.062Z,96.80
2019-01-12T06:19:26.291Z,96.70
2019-01-12T06:21:54.487Z,96.80
2019-01-12T06:24:22.679Z,96.90
2019-01-12T06:26:50.979Z,96.90
2019-01-12T06:29:19.187Z,96.80
2019-01-12T06:31:47.387Z,96.90
2019-01-12T06:34:15.631Z,96.90
2019-01-12T06:36:43.834Z,97.00
2019-01-12T06:39:12.059Z,97.10
2019-01-12T06:41:40.263Z,97.20
2019-01-12T06:44:08.460Z,97.30
2019-01-12T06:46:37.509Z,97.20
2019-01-12T06:49:05.722Z,97.30
2019-01-12T06:51:33.952Z,97.30
2019-01-12T06:54:02.160Z,97.40
2019-01-12T06:56:30.456Z,97.40
2019-01-12T06:58:58.680Z,97.60
2019-01-12T07:01:26.878Z,97.60
2019-01-12T07:03:55.118Z,97.70
2019-01-12T07:06:23.331Z,97.70
2019-01-12T07:08:51.543Z,97.70
2019-01-12T07:11:19.750Z,98.00
2019-01-12T07:13:47.950Z,97.60
2019-01-12T07:16:16.171Z,97.70
2019-01-12T07:18:44.367Z,97.60
2019-01-12T07:21:12.570Z,98.00
2019-01-12T07:23:40.819Z,98.00
2019-01-12T07:26:09.022Z,98.00
2019-01-12T07:28:37.239Z,97.90
2019-01-12T07:31:05.457Z,97.90
2019-01-12T07:33:33.655Z,97.90
2019-01-12T07:36:01.870Z,98.00
2019-01-12T07:38:30.067Z,97.80
2019-01-12T07:40:58.319Z,97.80
2019-01-12T07:43:26.519Z,97.80
2019-01-12T07:45:54.709Z,97.80
2019-01-12T07:48:22.930Z,97.80
2019-01-12T07:50:51.150Z,97.60
2019-01-12T07:53:19.374Z,97.70
2019-01-12T07:55:47.591Z,97.50
2019-01-12T07:58:15.801Z,97.50
2019-01-12T08:00:44.012Z,97.60
2019-01-12T08:03:12.215Z,97.70
2019-01-12T08:05:40.426Z,97.80
2019-01-12T08:08:08.630Z,97.80
2019-01-12T08:10:36.831Z,97.70
2019-01-12T08:13:05.047Z,97.50
2019-01-12T08:15:33.255Z,97.40
2019-01-12T08:18:01.494Z,97.40
2019-01-12T08:20:29.690Z,97.20
2019-01-12T08:22:57.896Z,97.10
2019-01-12T08:25:26.116Z,97.00
2019-01-12T08:27:54.331Z,97.30
2019-01-12T08:30:22.533Z,97.20
2019-01-12T08:32:50.722Z,97.20
2019-01-12T08:35:18.919Z,97.10
2019-01-12T08:37:47.137Z,97.00
2019-01-12T08:40:15.330Z,96.80
2019-01-12T08:42:43.558Z,96.80
2019-01-12T08:45:11.839Z,96.70
2019-01-12T08:47:40.047Z,96.50
2019-01-12T08:50:13.986Z,96.30
2019-01-12T08:52:42.196Z,96.20
2019-01-12T08:55:11.024Z,96.10
2019-01-12T08:57:39.305Z,95.80
2019-01-12T09:00:10.767Z,95.80
2019-01-12T09:02:39.135Z,95.80
2019-01-12T09:05:07.382Z,96.00
2019-01-12T09:07:35.751Z,96.10
2019-01-12T09:10:06.375Z,96.10
2019-01-12T09:12:34.574Z,95.90
2019-01-12T09:15:02.806Z,95.70
2019-01-12T09:17:31.022Z,95.60
2019-01-12T09:19:59.318Z,95.60
2019-01-12T09:22:27.541Z,95.90
2019-01-12T09:24:55.965Z,95.70
2019-01-12T09:27:24.495Z,95.60
2019-01-12T09:29:54.477Z,95.60
2019-01-12T09:35:27.690Z,95.70
2019-01-12T09:37:55.955Z,95.90
2019-01-12T09:40:24.202Z,95.90
2019-01-12T09:42:52.406Z,95.70
2019-01-12T09:45:20.678Z,95.50
2019-01-12T09:47:48.922Z,95.20
2019-01-12T09:50:18.483Z,95.20
2019-01-12T09:52:47.354Z,95.20
2019-01-12T09:55:15.639Z,95.20
2019-01-12T09:57:43.855Z,95.40
2019-01-12T10:00:20.290Z,95.80
2019-01-12T10:02:48.509Z,95.70
2019-01-12T10:05:16.738Z,95.70
2019-01-12T10:07:44.969Z,95.70
2019-01-12T10:10:15.405Z,95.50
2019-01-12T10:12:44.292Z,95.30
2019-01-12T10:15:12.747Z,95.20
2019-01-12T10:17:40.988Z,95.00
2019-01-12T10:20:16.642Z,95.30
2019-01-12T10:22:44.877Z,95.50
2019-01-12T10:25:13.479Z,95.20
2019-01-12T10:27:41.682Z,95.00
2019-01-12T10:30:15.790Z,94.90
2019-01-12T10:32:44.074Z,94.80
2019-01-12T10:35:12.349Z,94.70
2019-01-12T10:37:40.583Z,95.00
2019-01-12T10:40:13.283Z,94.80
2019-01-12T10:42:42.203Z,94.80
2019-01-12T10:45:12.844Z,94.70
2019-01-12T10:47:41.075Z,94.70
2019-01-12T10:50:19.405Z,94.90
2019-01-12T10:52:49.195Z,94.40
2019-01-12T10:55:17.488Z,94.20
2019-01-12T10:57:45.705Z,94.30
2019-01-12T11:00:20.136Z,94.30
2019-01-12T11:08:26.990Z,94.00
2019-01-12T11:10:55.195Z,94.10
2019-01-12T11:13:24.017Z,94.00
2019-01-12T11:15:52.271Z,93.80
2019-01-12T11:18:21.079Z,93.70
2019-01-12T11:20:51.298Z,93.80
2019-01-12T11:23:20.813Z,93.70
2019-01-12T11:25:49.519Z,93.70
2019-01-12T11:28:17.750Z,93.60
2019-01-12T11:30:48.123Z,93.50
2019-01-12T11:33:16.351Z,93.30
2019-01-12T11:35:44.562Z,93.40
2019-01-12T11:38:13.051Z,93.60
2019-01-12T11:40:41.507Z,93.40
2019-01-12T11:43:09.735Z,93.10
2019-01-12T11:45:37.958Z,93.20
2019-01-12T11:48:06.237Z,93.60
2019-01-12T11:50:34.409Z,93.60
2019-01-12T11:53:02.615Z,93.70
2019-01-12T11:55:30.836Z,93.30
2019-01-12T11:57:59.038Z,93.30
2019-01-12T12:00:28.191Z,93.00
2019-01-12T12:02:56.519Z,93.10
2019-01-12T12:05:24.847Z,93.40
2019-01-12T12:07:53.244Z,93.20
2019-01-12T12:10:21.650Z,93.30
2019-01-12T12:12:49.944Z,93.50
2019-01-12T12:15:19.831Z,93.40
2019-01-12T12:17:48.098Z,93.10
2019-01-12T12:20:28.019Z,93.40
2019-01-12T12:22:56.590Z,93.70
2019-01-12T12:25:25.054Z,93.30
2019-01-12T12:27:53.385Z,93.30
2019-01-12T12:30:24.672Z,93.40
2019-01-12T12:32:55.030Z,93.50
2019-01-12T12:35:23.248Z,93.80
2019-01-12T12:37:52.697Z,93.80
2019-01-12T12:40:21.996Z,93.60
2019-01-12T12:42:50.186Z,93.30
2019-01-12T12:45:21.095Z,93.50
2019-01-12T12:47:49.304Z,93.10
2019-01-12T12:50:17.674Z,93.30
2019-01-12T12:52:45.915Z,93.20
2019-01-12T12:55:16.072Z,93.10
2019-01-12T12:57:44.291Z,93.30
2019-01-12T13:00:15.984Z,93.00
2019-01-12T13:02:44.195Z,93.10
2019-01-12T13:05:12.509Z,93.20
2019-01-12T13:07:40.749Z,93.20
2019-01-12T13:10:17.446Z,93.40
2019-01-12T13:12:45.676Z,93.70
2019-01-12T13:15:13.880Z,93.90
2019-01-12T13:18:01.531Z,94.00
2019-01-12T13:20:29.730Z,93.90
2019-01-12T13:22:57.922Z,94.00
2019-01-12T13:25:26.386Z,93.90
2019-01-12T13:27:54.570Z,94.00
2019-01-12T13:30:24.234Z,94.00
2019-01-12T13:32:52.444Z,93.90
2019-01-12T13:35:20.643Z,93.90
2019-01-12T13:37:48.881Z,94.00
2019-01-12T13:40:22.479Z,94.00
2019-01-12T13:42:50.701Z,94.10
2019-01-12T13:45:19.950Z,94.10
2019-01-12T13:47:48.131Z,94.10
2019-01-12T13:50:18.626Z,94.10
2019-01-12T13:52:46.835Z,94.20
2019-01-12T13:55:15.994Z,94.30
2019-01-12T13:57:47.706Z,94.40
2019-01-12T14:00:25.794Z,94.30
2019-01-12T14:02:53.993Z,94.40
2019-01-12T14:05:22.188Z,94.60
2019-01-12T14:07:56.166Z,94.50
2019-01-12T14:10:20.699Z,94.50
2019-01-12T14:12:48.920Z,94.80
2019-01-12T14:15:18.371Z,94.80
2019-01-12T14:17:46.638Z,94.90
2019-01-12T14:20:29.898Z,95.00
2019-01-12T14:22:58.122Z,95.20
2019-01-12T14:25:27.236Z,95.20
2019-01-12T14:27:55.603Z,95.50
2019-01-12T14:30:23.810Z,95.30
2019-01-12T14:32:52.434Z,95.20
2019-01-12T14:35:20.631Z,95.30
2019-01-12T14:37:48.834Z,95.20
2019-01-12T14:40:19.352Z,95.20
2019-01-12T14:42:47.537Z,95.20
2019-01-12T14:45:24.898Z,95.10
2019-01-12T14:47:53.094Z,95.00
2019-01-12T14:50:21.350Z,95.00
2019-01-12T14:52:49.559Z,95.00
2019-01-12T14:55:19.310Z,95.00
2019-01-12T14:57:47.540Z,94.90
2019-01-12T15:00:18.435Z,94.70
2019-01-12T15:02:47.640Z,94.70
2019-01-12T15:05:20.714Z,94.70
2019-01-12T15:07:48.949Z,94.70
2019-01-12T15:10:18.687Z,94.50
2019-01-12T15:12:47.352Z,94.40
2019-01-12T15:15:17.052Z,94.50
2019-01-12T15:17:45.299Z,94.70
2019-01-12T15:20:18.845Z,94.30
2019-01-12T15:22:47.046Z,94.20
2019-01-12T15:25:15.240Z,94.30
2019-01-12T15:27:43.463Z,94.10
2019-01-12T15:30:16.881Z,94.20
2019-01-12T15:32:45.575Z,94.10
2019-01-12T15:35:14.158Z,94.30
2019-01-12T15:37:43.479Z,93.90
2019-01-12T15:40:14.785Z,93.80
2019-01-12T15:42:43.031Z,93.70
2019-01-12T15:45:14.106Z,93.90
2019-01-12T15:47:42.303Z,93.80
2019-01-12T15:50:22.398Z,93.50
2019-01-12T15:52:50.582Z,93.40
2019-01-12T15:55:18.771Z,93.20
2019-01-12T15:57:47.027Z,93.20
2019-01-12T16:00:26.074Z,93.00
2019-01-12T16:02:54.413Z,93.00
2019-01-12T16:05:22.591Z,92.90
2019-01-12T16:07:50.830Z,92.80
2019-01-12T16:10:19.052Z,92.70
2019-01-12T16:12:48.572Z,92.80
2019-01-12T16:15:19.499Z,92.80
2019-01-12T16:17:47.750Z,92.80
2019-01-12T16:20:21.774Z,92.70
2019-01-12T16:22:49.972Z,92.80
2019-01-12T16:25:18.220Z,92.70
2019-01-12T16:27:46.420Z,92.80
2019-01-12T16:30:17.467Z,92.80
2019-01-12T16:32:45.843Z,93.00
2019-01-12T16:35:14.036Z,92.90
2019-01-12T16:37:42.500Z,93.00
2019-01-12T16:40:25.399Z,93.00
2019-01-12T16:42:53.589Z,92.80
2019-01-12T16:45:21.806Z,92.70
2019-01-12T16:47:50.033Z,93.00
2019-01-12T16:50:18.258Z,93.10
2019-01-12T16:52:46.462Z,93.30
2019-01-12T16:55:15.927Z,92.90
2019-01-12T16:57:44.131Z,93.00
2019-01-12T17:00:24.120Z,93.20
2019-01-12T17:02:52.319Z,93.50
2019-01-12T17:05:20.523Z,93.50
2019-01-12T17:07:48.746Z,93.40
2019-01-12T17:10:21.502Z,93.50
2019-01-12T17:12:49.697Z,93.60
2019-01-12T17:15:19.674Z,93.80
2019-01-12T17:17:47.875Z,93.70
2019-01-12T17:20:21.654Z,93.80
2019-01-12T17:22:50.943Z,93.90
2019-01-12T17:25:19.143Z,93.80
2019-01-12T17:27:47.340Z,93.90
2019-01-12T17:30:17.810Z,93.60
2019-01-12T17:32:46.001Z,93.80
2019-01-12T17:35:14.344Z,93.90
2019-01-12T17:37:42.894Z,93.80
2019-01-12T17:40:13.484Z,94.10
2019-01-12T17:42:41.713Z,94.30
2019-01-12T17:45:18.050Z,94.60
2019-01-12T17:47:46.256Z,94.70
2019-01-12T17:50:22.709Z,94.90
2019-01-12T17:52:50.898Z,95.20
2019-01-12T17:55:21.463Z,95.20
2019-01-12T17:57:49.785Z,95.40
2019-01-12T18:00:27.052Z,95.20
2019-01-12T18:02:55.263Z,95.60
2019-01-12T18:05:23.486Z,95.70
2019-01-12T18:07:51.694Z,96.00
2019-01-12T18:10:19.929Z,96.20
2019-01-12T18:12:48.199Z,96.30
2019-01-12T18:15:16.667Z,96.50
2019-01-12T18:17:44.879Z,96.80
2019-01-12T18:20:17.124Z,97.00
2019-01-12T18:22:45.358Z,96.90
2019-01-12T18:25:13.621Z,97.00
2019-01-12T18:27:41.822Z,96.90
2019-01-12T18:30:38.457Z,97.20
2019-01-12T18:33:06.651Z,97.10
2019-01-12T18:35:34.881Z,97.20
2019-01-12T18:38:03.103Z,97.20
2019-01-12T18:40:31.294Z,97.30
2019-01-12T18:42:59.510Z,97.40
2019-01-12T18:45:27.711Z,97.50
2019-01-12T18:47:55.910Z,97.60
2019-01-12T18:50:45.178Z,97.60
2019-01-12T18:53:13.379Z,97.50
2019-01-12T18:55:41.602Z,97.60
2019-01-12T18:58:09.805Z,97.70
2019-01-12T19:00:38.001Z,97.80
2019-01-12T19:03:06.226Z,97.90
2019-01-12T19:05:34.515Z,97.90
2019-01-12T19:08:02.729Z,97.90
2019-01-12T19:10:51.166Z,97.90
2019-01-12T19:13:10.498Z,97.90
2019-01-12T19:15:41.805Z,98.10
2019-01-12T19:18:10.022Z,98.20
2019-01-12T19:20:38.263Z,98.40
2019-01-12T19:23:06.468Z,98.40
2019-01-12T19:25:36.318Z,98.40
2019-01-12T19:28:04.556Z,98.40
2019-01-12T19:30:32.767Z,98.60
2019-01-12T19:33:02.663Z,98.60
2019-01-12T19:35:30.917Z,98.70
2019-01-12T19:37:59.118Z,98.50
2019-01-12T19:40:28.994Z,98.70
2019-01-12T19:43:00.033Z,98.70
2019-01-12T19:45:28.264Z,98.60
2019-01-12T19:47:56.523Z,98.70
2019-01-12T19:50:26.384Z,98.60
2019-01-12T19:52:54.588Z,98.60
2019-01-12T19:55:22.798Z,98.70
2019-01-12T19:57:51.279Z,98.70
2019-01-12T20:00:25.569Z,98.60
2019-01-12T20:02:53.795Z,98.70
2019-01-12T20:05:22.043Z,98.70
2019-01-12T20:07:50.251Z,98.50
2019-01-12T20:10:19.338Z,98.50
2019-01-12T20:12:47.570Z,98.50
2019-01-12T20:15:18.426Z,98.60
2019-01-12T20:17:46.633Z,98.60
2019-01-12T20:20:17.110Z,98.70
2019-01-12T20:22:45.340Z,98.70
2019-01-12T20:25:19.573Z,98.70
2019-01-12T20:27:49.431Z,98.70
2019-01-12T20:30:38.726Z,98.80
2019-01-12T20:33:26.615Z,98.90
2019-01-12T20:36:15.991Z,99.00
2019-01-12T20:39:08.759Z,99.00
2019-01-12T20:41:46.223Z,98.90
2019-01-12T20:44:23.302Z,98.90
2019-01-12T20:46:59.859Z,98.90
2019-01-12T20:49:31.347Z,98.80
2019-01-12T20:52:02.892Z,98.80
2019-01-12T20:54:39.577Z,98.70
2019-01-12T20:57:19.735Z,98.60
2019-01-12T21:00:15.458Z,98.60
2019-01-12T21:03:01.581Z,98.80
2019-01-12T21:05:35.811Z,99.00
2019-01-12T21:08:07.401Z,99.00
2019-01-12T21:10:58.235Z,99.10
2019-01-12T21:13:49.163Z,99.10
2019-01-12T21:16:20.737Z,99.10
2019-01-12T21:18:49.380Z,99.10
2019-01-12T21:21:17.570Z,99.00
2019-01-12T21:23:45.797Z,99.00
2019-01-12T21:26:14.005Z,99.00
2019-01-12T21:28:42.242Z,98.90
2019-01-12T21:31:10.500Z,98.90
2019-01-12T21:33:38.750Z,99.00
2019-01-12T21:36:06.958Z,99.00
2019-01-12T21:38:35.221Z,99.00
2019-01-12T21:41:06.455Z,99.00
2019-01-12T21:43:34.646Z,99.00
2019-01-12T21:46:02.886Z,99.10
2019-01-12T21:48:31.099Z,99.10
2019-01-12T21:51:02.035Z,99.10
2019-01-12T21:53:30.320Z,99.20
2019-01-12T21:56:01.282Z,99.20
2019-01-12T21:58:29.719Z,99.60
2019-01-12T22:00:59.100Z,99.30
2019-01-12T22:03:28.958Z,99.30
2019-01-12T22:05:57.171Z,99.20
2019-01-12T22:08:25.383Z,99.20
2019-01-12T22:10:54.026Z,99.10
2019-01-12T22:13:22.315Z,98.90
2019-01-12T22:15:50.500Z,98.60
2019-01-12T22:18:18.850Z,99.00
2019-01-12T22:20:47.083Z,98.90
2019-01-12T22:23:15.310Z,98.80
2019-01-12T22:25:43.514Z,98.80
2019-01-12T22:28:11.755Z,98.80
2019-01-12T22:30:40.006Z,98.80
2019-01-12T22:33:08.201Z,98.80
2019-01-12T22:35:36.407Z,98.80
2019-01-12T22:38:04.622Z,98.80
2019-01-12T22:40:32.838Z,98.60
2019-01-12T22:43:01.038Z,98.70
2019-01-12T22:45:29.250Z,98.60
2019-01-12T22:47:57.539Z,98.60
2019-01-12T22:50:25.744Z,98.60
2019-01-12T22:52:53.938Z,98.70
2019-01-12T22:55:22.180Z,98.70
2019-01-12T22:57:50.437Z,98.70
2019-01-12T23:00:46.456Z,98.70
2019-01-12T23:03:14.676Z,98.70
2019-01-12T23:05:42.882Z,98.50
2019-01-12T23:08:11.106Z,98.40
2019-01-12T23:10:39.330Z,98.50
2019-01-12T23:13:07.811Z,98.50
2019-01-12T23:15:36.047Z,98.60
2019-01-12T23:18:04.544Z,98.50
2019-01-12T23:20:32.759Z,98.60
2019-01-12T23:23:00.980Z,98.70
2019-01-12T23:25:29.183Z,98.70
2019-01-12T23:27:57.415Z,98.60
2019-01-12T23:30:25.746Z,98.60
2019-01-12T23:32:53.968Z,98.60
2019-01-12T23:35:22.266Z,98.70
2019-01-12T23:37:50.500Z,98.70
2019-01-12T23:40:18.815Z,98.70
2019-01-12T23:42:47.028Z,98.50
2019-01-12T23:45:15.703Z,98.60
2019-01-12T23:47:44.067Z,98.50
2019-01-12T23:50:13.571Z,98.50
2019-01-12T23:52:41.886Z,98.60
2019-01-12T23:55:10.082Z,98.70
2019-01-12T23:57:38.363Z,98.50
